Rabbs, Texas
Current Conditions -  °F | °C
As of 12:35 PM on Thursday 30 Oct 2014 (Local Time) from K66R Reporting Station
Haze Haze  
Wind Chill: 74°   Ceiling: 6000
Heat Index: 74°   Visibility: 0.75mi
Dew Point: 61°   Wind: 0mph
Humidity: 63%   Direction: NA
Pressure: 30.12"   Gusts: NA
Location:  29.3984°N, 96.8256°W
Report Text: K66R 301735Z AUTO 00000KT 3/4SM HZ BKN060 24/16 A3012 RMK AO2 VIS 1/4V5 T02360163
Loading
Personal Weather Stations






























Interactive Weather Map
Tropical Storm Tracking
New forecast layout! Learn more

10-Day Weather Forecast

Advertisements
Track Severe Weather on mobile